Who's Online

We have 3 guests online

GK Weather

An error occured during parsing XML data. Please try again.

Aviation WX

[source: ADDS]
METAR
KIAD 301052Z 04012KT 7SM SCT008 OVC012 16/14 A3015 RMK AO2 SLP208 T01560139 =
TAF
KIAD 301127Z 3012/0118 04012KT P6SM SCT008 OVC012 FM301500 06010G17KT 6SM -DZ OVC008 FM010000 06009KT 6SM -SHRADZ OVC008 FM011400 07005KT P6SM BKN030 =
SR / SS: 00:47 / 12:35 UTC (Washington-Dulles 2016-09-30)

JoomlaWatch Agent

Home Links
We are regularly out on the Web. When we find a great site we list it.